Meteorología y climatología de Navarra
Datos de la estación - Meteo Navarra

Estación de Aguilar de Codés GN

Altitud 736 m.


Datos desde el 09/11/2019 hasta el 10/11/2019 en horario solar
Los datos son PROVISIONALES

Anterior Página 1 de 1 Siguiente Descargar: Formato para Excel 2000 o superior   Formato csv   Formato para OpenOffice Calc
Fecha Temperatura Humedad relativa Radiación global Insolación Precipitación Vel. viento 10 m Vel. viento 10 m Dir. viento 10 m
ºC % W/m² s l/m² m/s km/h º
09/11/2019 0:00 3.9 91 0.0 0 0.0 4.2 15.2 279
09/11/2019 0:10 4.0 91 0.0 0 0.0 4.2 15.1 273
09/11/2019 0:20 4.0 90 0.0 0 0.0 4.2 15.2 280
09/11/2019 0:30 4.2 90 0.0 0 0.0 4.2 15.2 290
09/11/2019 0:40 4.2 90 0.0 0 0.1 3.8 13.8 280
09/11/2019 0:50 4.3 90 0.0 0 0.0 4.5 16.2 286
09/11/2019 1:00 4.4 90 0.0 0 0.0 3.9 13.9 277
09/11/2019 1:10 4.4 89 0.0 0 0.0 3.8 13.7 280
09/11/2019 1:20 4.3 90 0.0 0 0.0 4.5 16.1 291
09/11/2019 1:30 4.2 91 0.0 0 0.1 4.6 16.6 282
09/11/2019 1:40 4.3 91 0.0 0 0.0 4.3 15.4 278
09/11/2019 1:50 4.5 89 0.0 0 0.0 5.7 20.6 281
09/11/2019 2:00 4.3 89 0.0 0 0.0 4.5 16.3 285
09/11/2019 2:10 4.3 90 0.0 0 0.1 4.8 17.2 280
09/11/2019 2:20 4.2 90 0.0 0 0.1 4.8 17.2 283
09/11/2019 2:30 4.2 91 0.0 0 0.1 5.0 17.8 277
09/11/2019 2:40 4.0 92 0.0 0 0.2 4.2 15.2 283
09/11/2019 2:50 4.0 92 0.0 0 0.2 4.7 17.1 286
09/11/2019 3:00 3.9 92 0.0 0 0.0 4.5 16.1 285
09/11/2019 3:10 3.8 92 0.0 0 0.2 4.0 14.5 294
09/11/2019 3:20 3.8 93 0.0 0 0.0 3.5 12.5 297
09/11/2019 3:30 3.7 93 0.0 0 0.0 3.3 11.7 297
09/11/2019 3:40 3.7 93 0.0 0 0.1 3.9 14.0 308
09/11/2019 3:50 3.8 94 0.0 0 0.1 4.2 15.2 316
09/11/2019 4:00 3.7 94 0.0 0 0.1 3.5 12.6 305
09/11/2019 4:10 3.7 95 0.0 0 0.1 3.2 11.6 294
09/11/2019 4:20 3.6 95 0.0 0 0.0 3.4 12.2 297
09/11/2019 4:30 3.7 95 0.0 0 0.0 2.7 9.6 305
09/11/2019 4:40 3.8 94 0.0 0 0.0 3.7 13.3 292
09/11/2019 4:50 3.9 93 0.0 0 0.0 4.4 15.8 288
09/11/2019 5:00 3.9 92 0.0 0 0.0 4.1 14.9 286
09/11/2019 5:10 4.1 91 0.0 0 0.0 4.5 16.2 279
09/11/2019 5:20 4.0 91 0.0 0 0.0 4.5 16.3 276
09/11/2019 5:30 4.1 91 0.0 0 0.0 4.0 14.3 279
09/11/2019 5:40 4.2 91 0.0 0 0.0 3.8 13.6 285
09/11/2019 5:50 4.4 90 0.0 0 0.0 4.5 16.2 288
09/11/2019 6:00 4.4 89 0.0 0 0.0 3.9 13.9 297
09/11/2019 6:10 4.5 89 0.0 0 0.0 3.5 12.4 297
09/11/2019 6:20 4.3 89 0.0 0 0.0 3.1 11.1 304
09/11/2019 6:30 4.2 90 0.0 0 0.0 3.2 11.4 314
09/11/2019 6:40 3.9 90 0.0 0 0.0 3.3 11.9 312
09/11/2019 6:50 4.0 90 0.0 0 0.0 3.1 11.1 316
09/11/2019 7:00 3.8 90 0.0 0 0.0 2.6 9.3 319
09/11/2019 7:10 3.9 91 1.1 0 0.0 2.3 8.2 322
09/11/2019 7:20 3.8 91 14.5 0 0.0 2.3 8.2 337
09/11/2019 7:30 3.9 92 26.3 0 0.0 2.5 9.1 332
09/11/2019 7:40 3.8 91 37.4 0 0.0 2.4 8.5 346
09/11/2019 7:50 4.0 90 73.2 296 0.0 1.1 4.1 27
09/11/2019 8:00 4.3 90 76.3 128 0.0 1.9 6.8 357
09/11/2019 8:10 4.4 89 151.0 532 0.0 2.3 8.4 337
09/11/2019 8:20 4.9 88 211.5 512 0.0 2.7 9.8 322
09/11/2019 8:30 4.7 89 169.9 416 0.0 3.6 12.9 332
09/11/2019 8:40 5.0 89 282.0 600 0.0 3.9 14.0 329
09/11/2019 8:50 5.0 88 284.3 600 0.0 4.3 15.6 333
09/11/2019 9:00 5.2 86 362.9 600 0.0 4.1 14.8 324
09/11/2019 9:10 5.6 84 346.9 600 0.0 4.1 14.7 321
09/11/2019 9:20 5.7 82 233.7 552 0.0 4.9 17.6 322
09/11/2019 9:30 5.9 81 329.0 600 0.0 5.9 21.3 323
09/11/2019 9:40 6.1 78 418.8 600 0.0 7.2 25.8 321
09/11/2019 9:50 6.2 75 202.7 236 0.0 7.6 27.2 314
09/11/2019 10:00 6.2 76 341.3 522 0.0 7.5 27.0 316
09/11/2019 10:10 6.1 77 178.9 58 0.0 6.7 24.0 315
09/11/2019 10:20 5.8 78 147.7 0 0.0 6.5 23.4 315
09/11/2019 10:30 6.0 78 188.8 52 0.0 6.2 22.2 310
09/11/2019 10:40 6.3 75 245.3 258 0.0 5.6 20.2 300
09/11/2019 10:50 6.1 76 222.9 70 0.0 7.0 25.0 303
09/11/2019 11:00 6.0 77 145.7 0 0.0 7.9 28.5 311
09/11/2019 11:10 5.8 78 91.7 0 0.0 7.5 26.9 313
09/11/2019 11:20 5.3 80 83.1 0 0.0 6.8 24.6 313
09/11/2019 11:30 5.2 83 74.5 0 0.0 6.5 23.3 318
09/11/2019 11:40 5.0 85 108.1 0 0.1 6.7 24.2 314
09/11/2019 11:50 5.3 85 175.6 0 0.0 4.6 16.5 299
09/11/2019 12:00 5.7 83 245.3 78 0.0 4.4 15.8 298
09/11/2019 12:10 6.0 82 202.3 12 0.0 4.9 17.5 311
09/11/2019 12:20 6.2 80 437.0 600 0.0 7.0 25.1 304
09/11/2019 12:30 6.5 79 344.5 410 0.0 6.4 22.9 283
09/11/2019 12:40 7.2 78 514.2 542 0.0 5.1 18.5 278
09/11/2019 12:50 7.1 77 463.3 556 0.0 5.2 18.9 287
09/11/2019 13:00 7.7 76 488.9 600 0.0 5.1 18.3 288
09/11/2019 13:10 7.5 76 459.7 600 0.0 5.6 20.3 290
09/11/2019 13:20 7.3 77 345.4 600 0.0 6.5 23.3 281
09/11/2019 13:30 7.2 78 248.0 422 0.0 7.7 27.6 288
09/11/2019 13:40 7.0 80 102.5 0 0.0 6.9 24.9 301
09/11/2019 13:50 6.8 83 92.0 0 0.0 6.2 22.3 303
09/11/2019 14:00 7.4 79 193.3 214 0.0 5.9 21.2 297
09/11/2019 14:10 8.1 78 302.1 590 0.0 4.0 14.5 276
09/11/2019 14:20 8.6 75 205.5 276 0.0 4.8 17.4 287
09/11/2019 14:30 8.2 75 170.3 0 0.0 4.7 16.8 292
09/11/2019 14:40 8.0 75 149.5 0 0.0 6.1 22.1 299
09/11/2019 14:50 8.0 75 140.1 0 0.0 5.7 20.6 303
09/11/2019 15:00 8.0 76 110.5 0 0.0 5.9 21.1 301
09/11/2019 15:10 8.2 75 87.4 0 0.0 6.3 22.7 306
09/11/2019 15:20 8.1 75 64.1 0 0.0 6.2 22.4 301
09/11/2019 15:30 8.1 75 53.7 0 0.0 6.2 22.2 300
09/11/2019 15:40 8.0 75 31.6 0 0.0 6.6 23.9 298
09/11/2019 15:50 8.1 76 34.7 0 0.0 6.1 21.9 296
09/11/2019 16:00 8.0 76 28.4 0 0.0 4.7 16.9 290
09/11/2019 16:10 8.0 76 28.3 0 0.0 4.4 15.8 291
09/11/2019 16:20 7.8 80 22.6 0 0.0 3.7 13.2 290
09/11/2019 16:30 7.9 79 21.9 0 0.0 4.1 14.6 269
09/11/2019 16:40 8.0 77 5.9 0 0.0 3.5 12.4 271
09/11/2019 16:50 8.0 78 0.0 0 0.0 2.7 9.8 262
09/11/2019 17:00 8.0 80 0.0 0 0.0 3.0 10.9 285
09/11/2019 17:10 8.0 80 0.0 0 0.0 4.6 16.5 283
09/11/2019 17:20 7.9 80 0.0 0 0.0 4.9 17.6 312
09/11/2019 17:30 7.4 83 0.0 0 0.0 4.1 14.8 313
09/11/2019 17:40 7.1 87 0.0 0 0.0 4.4 15.9 316
09/11/2019 17:50 7.0 87 0.0 0 0.0 3.8 13.7 312
09/11/2019 18:00 7.0 87 0.0 0 0.0 3.1 11.2 316
09/11/2019 18:10 6.9 86 0.0 0 0.0 2.8 10.2 311
09/11/2019 18:20 7.3 84 0.0 0 0.0 3.3 11.8 314
09/11/2019 18:30 7.3 83 0.0 0 0.0 3.1 11.0 308
09/11/2019 18:40 7.5 82 0.0 0 0.0 3.5 12.7 314
09/11/2019 18:50 7.6 82 0.0 0 0.0 3.4 12.4 313
09/11/2019 19:00 7.2 86 0.0 0 0.3 3.7 13.4 301
09/11/2019 19:10 7.0 90 0.0 0 0.3 3.8 13.6 283
09/11/2019 19:20 6.9 91 0.0 0 0.6 5.1 18.3 289
09/11/2019 19:30 6.6 91 0.0 0 0.5 5.4 19.4 292
09/11/2019 19:40 6.5 91 0.0 0 0.5 6.3 22.8 306
09/11/2019 19:50 5.8 90 0.0 0 0.5 6.7 24.0 345
09/11/2019 20:00 5.6 87 0.0 0 0.0 6.7 24.1 317
09/11/2019 20:10 5.3 88 0.0 0 0.3 7.7 27.7 316
09/11/2019 20:20 5.0 89 0.0 0 0.3 10.3 36.9 318
09/11/2019 20:30 4.6 89 0.0 0 0.2 10.7 38.6 315
09/11/2019 20:40 4.2 88 0.0 0 0.4 11.4 41.1 324
09/11/2019 20:50 3.9 88 0.0 0 0.1 6.2 22.5 348
09/11/2019 21:00 3.9 86 0.0 0 0.0 5.5 19.9 344
09/11/2019 21:10 3.6 86 0.0 0 0.0 9.4 33.9 319
09/11/2019 21:20 3.5 87 0.0 0 0.0 8.3 29.9 324
09/11/2019 21:30 3.4 88 0.0 0 0.0 6.9 24.8 321
09/11/2019 21:40 3.4 89 0.0 0 0.0 6.7 23.9 323
09/11/2019 21:50 3.3 90 0.0 0 0.0 3.7 13.5 285
09/11/2019 22:00 3.7 89 0.0 0 0.0 4.7 16.8 288
09/11/2019 22:10 3.8 88 0.0 0 0.0 3.7 13.2 271
09/11/2019 22:20 4.0 88 0.0 0 0.0 4.0 14.3 284
09/11/2019 22:30 3.9 89 0.0 0 0.3 6.0 21.6 305
09/11/2019 22:40 3.8 90 0.0 0 0.1 5.2 18.8 307
09/11/2019 22:50 3.7 89 0.0 0 0.0 5.1 18.4 310
09/11/2019 23:00 3.4 89 0.0 0 0.0 4.6 16.4 294
09/11/2019 23:10 3.3 90 0.0 0 0.1 5.2 18.5 288
09/11/2019 23:20 3.5 90 0.0 0 0.0 6.1 21.9 295
09/11/2019 23:30 3.3 90 0.0 0 0.0 5.6 20.2 289
09/11/2019 23:40 3.3 88 0.0 0 0.1 6.1 21.8 299
09/11/2019 23:50 3.4 89 0.0 0 0.0 6.3 22.5 303
Anterior Página 1 de 1 Siguiente

NOTA: Tipo de datos según el color:
   - Valores diarios o 10 minutos correctos
   - Valores diarios calculados a partir de un número de datos 10 minutos menor que 144 y mayor que 120, o de un número de datos semihorarios menor que 48 y mayor que 40 (caso de las estaciones de Riegos de Navarra y del MARM)
   - Valores diez minutos estimados


Contacto        Enlaces        Aviso legal